Time;durP1;ratioP1;P1;durP2;ratioP2;P2;SDS_P1;SDS_P2;PMS_P1;PMS_P2;Temp;Humidity;BMP_temperature;BMP_pressure;BME280_temperature;BME280_humidity;BME280_pressure;Samples;Min_cycle;Max_cycle;Signal;HPM_P1;HPM_P2
2023/03/05 00:02:23;;;;;;;6.70;0.93;;;4.50;99.90;;;;;;6218135;23;19996;-85
2023/03/05 00:04:49;;;;;;;12.82;1.33;;;4.50;99.90;;;;;;6218949;23;20070;-86
2023/03/05 00:07:15;;;;;;;10.13;1.30;;;4.50;99.90;;;;;;6217343;23;20005;-85
2023/03/05 00:09:41;;;;;;;7.28;0.93;;;4.50;99.90;;;;;;6218186;23;20067;-85
2023/03/05 00:12:06;;;;;;;6.93;0.98;;;4.40;99.90;;;;;;6218403;23;20019;-86
2023/03/05 00:14:32;;;;;;;11.10;1.30;;;4.50;99.90;;;;;;6218729;23;20012;-85
2023/03/05 00:16:57;;;;;;;15.23;2.00;;;4.50;99.90;;;;;;6219332;23;20003;-85
2023/03/05 00:19:23;;;;;;;9.90;1.17;;;4.50;99.90;;;;;;6244214;23;20004;-85
2023/03/05 00:21:49;;;;;;;13.18;1.33;;;4.50;99.90;;;;;;6218596;23;20369;-85
2023/03/05 00:24:17;;;;;;;17.20;1.15;;;4.50;99.90;;;;;;6244155;23;20054;-85
2023/03/05 00:26:43;;;;;;;12.25;1.00;;;4.50;99.90;;;;;;6218156;23;20050;-85
2023/03/05 00:29:13;;;;;;;8.77;0.95;;;4.50;99.90;;;;;;6244883;23;20004;-85
2023/03/05 00:31:38;;;;;;;9.50;0.80;;;4.50;99.90;;;;;;6219411;23;20000;-85
2023/03/05 00:34:07;;;;;;;11.57;1.15;;;4.50;99.90;;;;;;6217777;23;20316;-85
2023/03/05 00:36:34;;;;;;;6.85;0.75;;;4.50;99.90;;;;;;6221356;23;20020;-85
2023/03/05 00:38:59;;;;;;;13.15;1.60;;;4.50;99.90;;;;;;6219421;23;20393;-85
2023/03/05 00:41:26;;;;;;;16.42;1.30;;;4.50;99.90;;;;;;6218743;23;20015;-85
2023/03/05 00:43:52;;;;;;;13.30;0.90;;;4.50;99.90;;;;;;6218362;23;20573;-85
2023/03/05 00:46:17;;;;;;;7.80;1.00;;;4.50;99.90;;;;;;6217814;23;20004;-85
2023/03/05 00:48:43;;;;;;;9.02;1.50;;;4.40;99.90;;;;;;6217909;23;20453;-85
2023/03/05 00:51:09;;;;;;;7.72;0.90;;;4.40;99.90;;;;;;6217637;23;20054;-85
2023/03/05 00:53:35;;;;;;;8.68;1.02;;;4.40;99.90;;;;;;6218123;22;20423;-85
2023/03/05 00:56:00;;;;;;;13.57;1.13;;;4.40;99.90;;;;;;6245066;23;20000;-86
2023/03/05 00:58:26;;;;;;;14.32;0.82;;;4.40;99.90;;;;;;6217727;23;20044;-85
2023/03/05 01:00:51;;;;;;;9.35;0.80;;;4.30;99.90;;;;;;6218164;23;20008;-85
2023/03/05 01:03:18;;;;;;;10.45;0.90;;;4.30;99.90;;;;;;6217328;23;20034;-84
2023/03/05 01:05:44;;;;;;;8.65;1.77;;;4.30;99.90;;;;;;6218097;23;19997;-85
2023/03/05 01:08:09;;;;;;;10.68;0.93;;;4.30;99.90;;;;;;6217714;23;20091;-85
2023/03/05 01:10:35;;;;;;;9.73;1.25;;;4.20;99.90;;;;;;6217717;23;20050;-85
2023/03/05 01:13:00;;;;;;;10.65;0.95;;;4.20;99.90;;;;;;6244385;23;20454;-85
2023/03/05 01:15:26;;;;;;;10.82;0.85;;;4.30;99.90;;;;;;6218613;23;20019;-86
2023/03/05 01:17:52;;;;;;;13.13;1.05;;;4.20;99.90;;;;;;6218240;23;20529;-86
2023/03/05 01:20:20;;;;;;;11.02;1.73;;;4.20;99.90;;;;;;6217662;23;20016;-86
2023/03/05 01:22:46;;;;;;;12.00;1.08;;;4.30;99.90;;;;;;6218177;23;20136;-85
2023/03/05 01:25:13;;;;;;;10.75;1.02;;;4.20;99.90;;;;;;6217928;23;20008;-85
2023/03/05 01:27:40;;;;;;;9.85;1.05;;;4.20;99.90;;;;;;6217970;23;20119;-85
2023/03/05 01:30:07;;;;;;;7.78;0.70;;;4.20;99.90;;;;;;6217707;23;20002;-85
2023/03/05 01:32:35;;;;;;;14.25;1.23;;;4.20;99.90;;;;;;6244610;23;20434;-85
2023/03/05 01:35:02;;;;;;;7.95;0.95;;;4.20;99.90;;;;;;6217719;23;20012;-85
2023/03/05 01:37:28;;;;;;;10.27;1.08;;;4.20;99.90;;;;;;6218006;23;20000;-86
2023/03/05 01:39:53;;;;;;;7.13;0.75;;;4.20;99.90;;;;;;6218403;23;20434;-85
2023/03/05 01:42:19;;;;;;;10.43;1.77;;;4.20;99.90;;;;;;6217079;23;20001;-86
2023/03/05 01:45:02;;;;;;;11.85;1.30;;;4.20;99.90;;;;;;6217521;23;20031;-85
2023/03/05 01:47:28;;;;;;;10.57;1.40;;;4.20;99.90;;;;;;6218034;23;20008;-85
2023/03/05 01:49:54;;;;;;;12.00;1.88;;;4.20;99.90;;;;;;6218092;23;20396;-85
2023/03/05 01:52:23;;;;;;;11.40;1.90;;;4.20;99.90;;;;;;6217267;23;20446;-85
2023/03/05 01:55:17;;;;;;;14.93;2.03;;;4.20;99.90;;;;;;6217564;23;20019;-85
2023/03/05 01:58:09;;;;;;;11.73;1.90;;;4.20;99.90;;;;;;6211229;23;20030;-85
2023/03/05 02:00:39;;;;;;;10.70;1.98;;;4.20;99.90;;;;;;6216623;23;20000;-85
2023/03/05 02:03:09;;;;;;;10.63;1.58;;;4.20;99.90;;;;;;6217588;23;20007;-85
2023/03/05 02:05:38;;;;;;;19.42;2.60;;;4.20;99.90;;;;;;6217734;23;20004;-85
2023/03/05 02:08:09;;;;;;;13.82;2.50;;;4.20;99.90;;;;;;6216822;23;20004;-86
2023/03/05 02:10:42;;;;;;;9.23;2.47;;;4.20;99.90;;;;;;6217401;23;20008;-85
2023/03/05 02:13:10;;;;;;;12.68;3.10;;;4.20;99.90;;;;;;6217262;23;20007;-85
2023/03/05 02:15:37;;;;;;;11.55;2.13;;;4.20;99.90;;;;;;6217037;23;20355;-85
2023/03/05 02:18:03;;;;;;;13.57;1.88;;;4.20;99.90;;;;;;6215765;23;20012;-85
2023/03/05 02:20:41;;;;;;;12.90;2.25;;;4.20;99.90;;;;;;6216540;23;20016;-85
2023/03/05 02:23:07;;;;;;;10.82;1.95;;;4.20;99.90;;;;;;6216350;23;20009;-85
2023/03/05 02:25:34;;;;;;;16.67;2.13;;;4.10;99.90;;;;;;6217233;23;20016;-85
2023/03/05 02:28:05;;;;;;;9.45;1.95;;;4.10;99.90;;;;;;6217334;23;20051;-85
2023/03/05 02:30:30;;;;;;;21.15;1.80;;;4.20;99.90;;;;;;6217369;23;20320;-85
2023/03/05 02:32:56;;;;;;;10.52;1.65;;;4.20;99.90;;;;;;6244133;23;19996;-85
2023/03/05 02:35:23;;;;;;;11.20;1.98;;;4.20;99.90;;;;;;6216663;23;20066;-85
2023/03/05 02:37:48;;;;;;;12.13;1.67;;;4.20;99.90;;;;;;6217335;23;20004;-85
2023/03/05 02:40:14;;;;;;;5.43;2.05;;;4.20;99.90;;;;;;6218182;23;20004;-85
2023/03/05 02:42:40;;;;;;;10.75;1.90;;;4.20;99.90;;;;;;6218129;23;20000;-85
2023/03/05 02:45:07;;;;;;;11.10;1.92;;;4.20;99.90;;;;;;6219174;23;20008;-85
2023/03/05 02:47:32;;;;;;;17.55;1.42;;;4.20;99.90;;;;;;6218772;23;20042;-86
2023/03/05 02:49:58;;;;;;;10.88;1.63;;;4.10;99.90;;;;;;6219047;23;20012;-85
2023/03/05 02:52:24;;;;;;;14.45;2.15;;;4.20;99.90;;;;;;6218001;23;20004;-85
2023/03/05 02:54:50;;;;;;;11.13;1.90;;;4.10;99.90;;;;;;6245998;23;20008;-85
2023/03/05 02:57:17;;;;;;;11.07;1.60;;;4.20;99.90;;;;;;6218609;23;20001;-85
2023/03/05 02:59:42;;;;;;;11.45;1.52;;;4.20;99.90;;;;;;6245887;23;20011;-84
2023/03/05 03:02:08;;;;;;;12.23;2.25;;;4.20;99.90;;;;;;6218445;23;20026;-85
2023/03/05 03:04:33;;;;;;;10.43;1.70;;;4.20;99.90;;;;;;6219579;23;20004;-85
2023/03/05 03:06:59;;;;;;;6.75;1.63;;;4.10;99.90;;;;;;6218846;23;20004;-85
2023/03/05 03:09:25;;;;;;;11.38;1.75;;;4.10;99.90;;;;;;6245262;23;20423;-86
2023/03/05 03:11:52;;;;;;;9.88;1.65;;;4.00;99.90;;;;;;6218751;23;20213;-85
2023/03/05 03:14:17;;;;;;;5.88;1.58;;;4.00;99.90;;;;;;6218987;23;20016;-85
2023/03/05 03:16:43;;;;;;;13.25;1.70;;;4.00;99.90;;;;;;6218908;23;20423;-85
2023/03/05 03:19:08;;;;;;;8.98;1.33;;;4.00;99.90;;;;;;6218023;23;20419;-86
2023/03/05 03:21:34;;;;;;;9.55;1.20;;;4.00;99.90;;;;;;6218747;23;20004;-85
2023/03/05 03:23:59;;;;;;;10.23;1.48;;;4.00;99.90;;;;;;6245543;23;20082;-86
2023/03/05 03:26:25;;;;;;;12.32;1.65;;;4.00;99.90;;;;;;6245612;23;20435;-85
2023/03/05 03:28:51;;;;;;;14.18;1.77;;;4.00;99.90;;;;;;6218504;23;20095;-85
2023/03/05 03:31:16;;;;;;;8.82;1.33;;;4.00;99.90;;;;;;6218650;23;20094;-85
2023/03/05 03:33:42;;;;;;;8.30;1.00;;;4.00;99.90;;;;;;6218319;23;20430;-85
2023/03/05 03:36:08;;;;;;;9.25;1.23;;;4.00;99.90;;;;;;6217982;23;20008;-85
2023/03/05 03:38:34;;;;;;;9.93;1.90;;;4.00;99.90;;;;;;6219220;23;20062;-85
2023/03/05 03:40:59;;;;;;;13.18;1.45;;;4.00;99.90;;;;;;6218930;23;20032;-85
2023/03/05 03:43:25;;;;;;;12.23;1.30;;;4.10;99.90;;;;;;6246796;23;20415;-85
2023/03/05 03:45:50;;;;;;;6.40;1.30;;;4.10;99.90;;;;;;6246273;23;20331;-85
2023/03/05 03:48:16;;;;;;;12.57;1.30;;;4.10;99.90;;;;;;6218248;23;20457;-85
2023/03/05 03:50:42;;;;;;;5.80;0.93;;;4.10;99.90;;;;;;6217479;23;20065;-85
2023/03/05 03:53:08;;;;;;;8.32;0.88;;;4.10;99.90;;;;;;6217998;23;20007;-85
2023/03/05 03:55:34;;;;;;;7.10;1.40;;;4.10;99.90;;;;;;6218188;23;20012;-85
2023/03/05 03:58:00;;;;;;;8.23;0.80;;;4.00;99.90;;;;;;6218879;23;20000;-85
2023/03/05 04:00:25;;;;;;;9.15;2.40;;;4.00;99.90;;;;;;6245274;23;20007;-85
2023/03/05 04:02:51;;;;;;;10.48;1.40;;;4.00;99.90;;;;;;6217022;23;20078;-85
2023/03/05 04:05:17;;;;;;;13.13;1.25;;;4.00;99.90;;;;;;6217399;23;20004;-85
2023/03/05 04:07:44;;;;;;;5.75;1.08;;;4.00;99.90;;;;;;6217914;23;20004;-85
2023/03/05 04:10:10;;;;;;;11.18;1.10;;;3.90;99.90;;;;;;6217802;23;20004;-85
2023/03/05 04:12:36;;;;;;;11.98;1.73;;;4.00;99.90;;;;;;6245194;23;19996;-85
2023/03/05 04:15:02;;;;;;;6.22;0.80;;;3.90;99.90;;;;;;6218054;23;20023;-85
2023/03/05 04:17:27;;;;;;;6.68;1.25;;;3.90;99.90;;;;;;6218131;23;20019;-85
2023/03/05 04:19:53;;;;;;;9.25;1.05;;;3.90;99.90;;;;;;6217368;23;20319;-85
2023/03/05 04:22:18;;;;;;;7.18;1.00;;;3.90;99.90;;;;;;6217952;23;20722;-85
2023/03/05 04:24:44;;;;;;;11.75;1.30;;;3.80;99.90;;;;;;6218050;23;20023;-85
2023/03/05 04:27:10;;;;;;;6.53;0.93;;;3.80;99.90;;;;;;6217743;23;20004;-85
2023/03/05 04:29:36;;;;;;;12.15;0.90;;;3.80;99.90;;;;;;6217942;23;20031;-85
2023/03/05 04:32:02;;;;;;;6.07;0.80;;;3.80;99.90;;;;;;6217650;23;20004;-85
2023/03/05 04:34:27;;;;;;;7.63;0.93;;;3.80;99.90;;;;;;6244545;23;20122;-86
2023/03/05 04:36:53;;;;;;;6.03;0.88;;;3.80;99.90;;;;;;6244305;23;20326;-85
2023/03/05 04:39:19;;;;;;;8.07;1.38;;;3.80;99.90;;;;;;6217652;23;20078;-84
2023/03/05 04:41:46;;;;;;;8.02;0.98;;;3.80;99.90;;;;;;6218078;23;20057;-85
2023/03/05 04:44:12;;;;;;;14.25;0.90;;;3.80;99.90;;;;;;6217358;23;20011;-86
2023/03/05 04:46:37;;;;;;;8.38;1.48;;;3.80;99.90;;;;;;6218559;23;20004;-85
2023/03/05 04:49:03;;;;;;;7.15;0.95;;;3.80;99.90;;;;;;6217190;23;20080;-85
2023/03/05 04:51:28;;;;;;;8.18;1.00;;;3.80;99.90;;;;;;6217101;23;20004;-85
2023/03/05 04:53:54;;;;;;;4.90;1.20;;;3.90;99.90;;;;;;6244354;23;19997;-85
2023/03/05 04:56:19;;;;;;;10.13;1.25;;;3.90;99.90;;;;;;6217615;23;20054;-85
2023/03/05 04:58:45;;;;;;;7.13;1.17;;;3.90;99.90;;;;;;6217032;23;20003;-85
2023/03/05 05:01:10;;;;;;;6.82;1.20;;;3.90;99.90;;;;;;6217382;23;20385;-85
2023/03/05 05:03:36;;;;;;;8.82;0.80;;;3.90;99.90;;;;;;6217494;23;20595;-86
2023/03/05 05:06:02;;;;;;;8.30;1.08;;;3.90;99.90;;;;;;6216130;23;20028;-85
2023/03/05 05:08:28;;;;;;;8.38;1.27;;;3.90;99.90;;;;;;6217013;23;20004;-85
2023/03/05 05:10:58;;;;;;;8.05;1.25;;;3.90;99.90;;;;;;6216708;23;20066;-84
2023/03/05 05:13:24;;;;;;;10.15;1.25;;;3.90;99.90;;;;;;6215509;23;20011;-85
2023/03/05 05:15:50;;;;;;;13.43;1.50;;;3.90;99.90;;;;;;6241478;23;20118;-85
2023/03/05 05:18:16;;;;;;;9.85;1.15;;;3.90;99.90;;;;;;6216027;23;20008;-86
2023/03/05 05:20:41;;;;;;;12.50;1.10;;;3.90;99.90;;;;;;6214337;22;20389;-86
2023/03/05 05:23:07;;;;;;;9.40;1.13;;;4.00;99.90;;;;;;6215707;23;20004;-85
2023/03/05 05:25:32;;;;;;;8.40;1.45;;;3.90;99.90;;;;;;6213492;23;20008;-85
2023/03/05 05:27:58;;;;;;;7.60;1.52;;;3.90;99.90;;;;;;6218347;23;20007;-85
2023/03/05 05:30:23;;;;;;;5.63;0.95;;;4.00;99.90;;;;;;6214284;23;20235;-85
2023/03/05 05:32:49;;;;;;;10.88;2.53;;;4.00;99.90;;;;;;6242488;22;19996;-85
2023/03/05 05:35:14;;;;;;;11.73;2.13;;;4.00;99.90;;;;;;6216405;23;20012;-85
2023/03/05 05:37:40;;;;;;;8.05;1.70;;;4.00;99.90;;;;;;6244237;23;20030;-85
2023/03/05 05:40:07;;;;;;;11.23;2.25;;;3.90;99.90;;;;;;6217336;23;20000;-85
2023/03/05 05:42:33;;;;;;;10.02;2.10;;;4.00;99.90;;;;;;6217075;23;20019;-85
2023/03/05 05:44:59;;;;;;;11.57;1.88;;;3.90;99.90;;;;;;6216856;23;20032;-84
2023/03/05 05:47:24;;;;;;;10.13;1.90;;;3.90;99.90;;;;;;6216310;23;20334;-84
2023/03/05 05:49:50;;;;;;;7.75;1.48;;;3.90;99.90;;;;;;6216558;23;20423;-85
2023/03/05 05:52:16;;;;;;;10.50;1.98;;;3.90;99.90;;;;;;6216261;23;20000;-85
2023/03/05 05:54:41;;;;;;;8.25;2.28;;;3.80;99.90;;;;;;6216545;23;20458;-85
2023/03/05 05:57:07;;;;;;;14.18;2.88;;;3.80;99.90;;;;;;6216441;23;20001;-85
2023/03/05 05:59:33;;;;;;;9.98;2.05;;;3.80;99.90;;;;;;6216203;23;20008;-84
2023/03/05 06:01:58;;;;;;;11.60;2.38;;;3.80;99.90;;;;;;6216687;23;20039;-84
2023/03/05 06:04:24;;;;;;;14.32;2.45;;;3.80;99.90;;;;;;6243207;23;20075;-85
2023/03/05 06:06:50;;;;;;;9.30;2.28;;;3.80;99.90;;;;;;6216166;23;20008;-85
2023/03/05 06:09:15;;;;;;;15.15;2.60;;;3.80;99.90;;;;;;6214457;23;20023;-85
2023/03/05 06:11:41;;;;;;;10.85;2.53;;;3.80;99.90;;;;;;6241701;22;20034;-85
2023/03/05 06:14:07;;;;;;;12.57;3.03;;;3.80;99.90;;;;;;6213041;23;20054;-85
2023/03/05 06:16:33;;;;;;;12.48;3.35;;;3.70;99.90;;;;;;6243820;23;20010;-84
2023/03/05 06:19:03;;;;;;;10.95;3.60;;;3.70;99.90;;;;;;6214726;23;20010;-85
2023/03/05 06:21:29;;;;;;;10.98;3.30;;;3.70;99.90;;;;;;6218323;23;20020;-85
2023/03/05 06:23:57;;;;;;;13.82;3.03;;;3.70;99.90;;;;;;6218680;23;20007;-86
2023/03/05 06:26:23;;;;;;;10.95;3.70;;;3.70;99.90;;;;;;6216615;23;20552;-85
2023/03/05 06:28:50;;;;;;;6.60;3.10;;;3.70;99.90;;;;;;6219559;23;20081;-85
2023/03/05 06:31:20;;;;;;;12.23;3.85;;;3.70;99.90;;;;;;6217768;23;20000;-85
2023/03/05 06:33:47;;;;;;;18.98;4.60;;;3.70;99.90;;;;;;6219312;23;20011;-86
2023/03/05 06:36:15;;;;;;;9.90;4.68;;;3.70;99.90;;;;;;6218580;23;20008;-85
2023/03/05 06:38:41;;;;;;;12.15;4.35;;;3.70;99.90;;;;;;6219258;23;20028;-85
2023/03/05 06:41:10;;;;;;;14.27;4.88;;;3.70;99.90;;;;;;6246693;23;20046;-85
2023/03/05 06:43:41;;;;;;;13.50;4.13;;;3.80;99.90;;;;;;6219837;23;20083;-86
2023/03/05 06:46:21;;;;;;;12.57;5.35;;;3.80;99.90;;;;;;6218890;23;20007;-85
2023/03/05 06:48:48;;;;;;;19.90;6.05;;;3.70;99.90;;;;;;6219110;23;20018;-85
2023/03/05 06:51:20;;;;;;;6.07;3.42;;;3.80;99.90;;;;;;6219418;23;20067;-85
2023/03/05 06:53:46;;;;;;;9.02;4.63;;;3.80;99.90;;;;;;6245513;23;20464;-85
2023/03/05 06:56:12;;;;;;;11.70;5.70;;;3.80;99.90;;;;;;6219214;23;20316;-85
2023/03/05 06:58:39;;;;;;;14.15;4.90;;;3.80;99.90;;;;;;6219693;23;20386;-86
2023/03/05 07:01:06;;;;;;;9.43;5.47;;;3.80;99.90;;;;;;6219046;23;20070;-85
2023/03/05 07:03:35;;;;;;;10.05;4.80;;;3.80;99.90;;;;;;6219148;23;20004;-84
2023/03/05 07:06:09;;;;;;;10.27;5.55;;;3.90;99.90;;;;;;6218097;23;20004;-85
2023/03/05 07:08:35;;;;;;;10.45;5.25;;;3.90;99.90;;;;;;6245496;23;20007;-86
2023/03/05 07:11:01;;;;;;;16.00;5.85;;;3.90;99.90;;;;;;6219764;23;20005;-86
2023/03/05 07:13:28;;;;;;;13.52;6.05;;;3.90;99.90;;;;;;6219166;23;20043;-85
2023/03/05 07:15:53;;;;;;;9.57;5.30;;;4.00;99.90;;;;;;6244486;23;20427;-85
2023/03/05 07:18:19;;;;;;;14.55;5.28;;;4.00;99.90;;;;;;6218319;23;20050;-85
2023/03/05 07:20:45;;;;;;;12.23;5.60;;;4.00;99.90;;;;;;6217958;23;20016;-87
2023/03/05 07:23:10;;;;;;;9.02;4.78;;;4.10;99.90;;;;;;6216211;23;20347;-86
2023/03/05 07:25:36;;;;;;;12.82;4.68;;;4.10;99.90;;;;;;6218139;23;20074;-85
2023/03/05 07:28:06;;;;;;;10.20;4.60;;;4.10;99.90;;;;;;6217287;23;20095;-86
2023/03/05 07:30:33;;;;;;;9.15;4.00;;;4.10;99.90;;;;;;6219055;23;20005;-86
2023/03/05 07:32:59;;;;;;;9.23;4.53;;;4.20;99.90;;;;;;6218627;23;20004;-86
2023/03/05 07:35:25;;;;;;;10.93;3.90;;;4.20;99.90;;;;;;6218747;23;20350;-86
2023/03/05 07:37:51;;;;;;;7.82;3.47;;;4.20;99.90;;;;;;6219692;23;20000;-86
2023/03/05 07:40:17;;;;;;;8.27;3.83;;;4.20;99.90;;;;;;6220107;23;20434;-86
2023/03/05 07:42:42;;;;;;;12.05;3.10;;;4.30;99.90;;;;;;6220653;23;20039;-86
2023/03/05 07:45:09;;;;;;;8.98;3.53;;;4.30;99.90;;;;;;6219265;23;20442;-86
2023/03/05 07:47:35;;;;;;;10.00;2.70;;;4.30;99.90;;;;;;6246105;23;20004;-86
2023/03/05 07:50:01;;;;;;;8.98;2.55;;;4.30;99.90;;;;;;6217596;23;20000;-86
2023/03/05 07:52:26;;;;;;;4.60;2.17;;;4.40;99.90;;;;;;6217052;23;20034;-86
2023/03/05 07:54:52;;;;;;;8.30;2.47;;;4.30;99.90;;;;;;6218225;23;20008;-85
2023/03/05 07:57:17;;;;;;;6.90;2.42;;;4.40;99.90;;;;;;6215496;23;20055;-85
2023/03/05 07:59:43;;;;;;;5.07;1.73;;;4.30;99.90;;;;;;6214073;23;20011;-86
2023/03/05 08:02:11;;;;;;;7.07;2.08;;;4.30;99.90;;;;;;6217297;23;20019;-85
2023/03/05 08:04:37;;;;;;;6.40;2.00;;;4.30;99.90;;;;;;6216718;23;20019;-86
2023/03/05 08:07:03;;;;;;;5.05;1.80;;;4.30;99.90;;;;;;6217487;23;20000;-86
2023/03/05 08:09:29;;;;;;;4.25;1.45;;;4.30;99.90;;;;;;6218830;23;20000;-86
2023/03/05 08:11:55;;;;;;;5.30;1.65;;;4.30;99.90;;;;;;6218060;23;20004;-85
2023/03/05 08:14:21;;;;;;;7.32;1.60;;;4.40;99.90;;;;;;6216008;22;20326;-86
2023/03/05 08:16:50;;;;;;;7.10;1.65;;;4.40;99.90;;;;;;6218064;23;20083;-86
2023/03/05 08:19:17;;;;;;;7.25;1.85;;;4.40;99.90;;;;;;6217673;23;20010;-86
2023/03/05 08:21:43;;;;;;;3.80;0.90;;;4.30;99.90;;;;;;6242136;22;20016;-86
2023/03/05 08:24:11;;;;;;;6.82;1.40;;;4.30;99.90;;;;;;6244159;23;20000;-86
2023/03/05 08:26:38;;;;;;;4.05;0.93;;;4.30;99.90;;;;;;6218354;23;20008;-86
2023/03/05 08:29:04;;;;;;;8.57;1.23;;;4.40;99.90;;;;;;6215682;23;20011;-86
2023/03/05 08:31:30;;;;;;;3.35;0.73;;;4.50;99.90;;;;;;6218258;23;20031;-86
2023/03/05 08:33:57;;;;;;;4.20;0.88;;;4.60;99.90;;;;;;6218406;23;20453;-85
2023/03/05 08:36:23;;;;;;;4.43;0.70;;;4.70;99.90;;;;;;6215925;22;20016;-86
2023/03/05 08:38:50;;;;;;;6.93;1.42;;;4.80;99.90;;;;;;6217166;22;20005;-85
2023/03/05 08:41:17;;;;;;;3.13;0.80;;;4.90;99.90;;;;;;6217622;23;20015;-85
2023/03/05 08:43:42;;;;;;;4.75;0.70;;;4.90;99.90;;;;;;6216971;23;20039;-84
2023/03/05 08:46:10;;;;;;;2.97;0.70;;;5.00;99.90;;;;;;6215122;22;20047;-85
2023/03/05 08:48:36;;;;;;;2.60;0.80;;;5.00;99.90;;;;;;6216136;23;20008;-87
2023/03/05 08:51:07;;;;;;;2.05;0.70;;;5.10;99.90;;;;;;6214159;23;20012;-86
2023/03/05 08:53:33;;;;;;;2.75;1.20;;;5.10;99.90;;;;;;6218127;23;20342;-84
2023/03/05 08:55:59;;;;;;;3.60;1.00;;;5.20;99.90;;;;;;6217021;23;20012;-85
2023/03/05 08:58:25;;;;;;;3.58;0.88;;;5.20;99.90;;;;;;6217417;23;20087;-85
2023/03/05 09:00:50;;;;;;;5.78;1.38;;;5.30;99.90;;;;;;6217791;23;20032;-85
2023/03/05 09:03:17;;;;;;;5.93;1.30;;;5.40;99.90;;;;;;6218453;23;19997;-85
2023/03/05 09:05:42;;;;;;;5.00;0.98;;;5.40;99.90;;;;;;6217694;23;20014;-86
2023/03/05 09:08:08;;;;;;;2.85;0.90;;;5.50;99.90;;;;;;6217589;23;20039;-85
2023/03/05 09:10:33;;;;;;;4.30;1.00;;;5.50;99.90;;;;;;6216906;23;20111;-85
2023/03/05 09:12:59;;;;;;;4.30;0.90;;;5.40;99.90;;;;;;6217942;23;20004;-85
2023/03/05 09:15:24;;;;;;;3.90;0.70;;;5.40;99.90;;;;;;6216313;23;20091;-85
2023/03/05 09:17:50;;;;;;;8.02;1.02;;;5.30;99.90;;;;;;6245197;23;20001;-86
2023/03/05 09:20:16;;;;;;;4.32;0.70;;;5.30;99.90;;;;;;6216316;23;20077;-85
2023/03/05 09:22:41;;;;;;;2.92;0.43;;;5.30;99.90;;;;;;6245023;23;20366;-85
2023/03/05 09:25:08;;;;;;;3.15;0.30;;;5.30;99.90;;;;;;6218059;23;20008;-85
2023/03/05 09:27:37;;;;;;;2.22;0.32;;;5.30;99.90;;;;;;6217859;23;20008;-85
2023/03/05 09:30:04;;;;;;;3.55;0.40;;;5.30;99.90;;;;;;6217925;23;20031;-86
2023/03/05 09:32:30;;;;;;;2.45;0.63;;;5.30;99.90;;;;;;6217620;23;20529;-85
2023/03/05 09:34:56;;;;;;;1.90;0.47;;;5.30;99.90;;;;;;6218286;23;20043;-86
2023/03/05 09:37:22;;;;;;;2.10;0.47;;;5.40;99.90;;;;;;6215266;23;20141;-85
2023/03/05 09:39:47;;;;;;;3.97;0.80;;;5.50;99.90;;;;;;6216094;23;20027;-85
2023/03/05 09:42:47;;;;;;;7.53;0.60;;;5.50;99.90;;;;;;6216134;23;20409;-85
2023/03/05 09:45:29;;;;;;;6.95;1.45;;;5.50;99.90;;;;;;6216406;23;20004;-85
2023/03/05 09:48:34;;;;;;;5.97;1.77;;;5.50;99.90;;;;;;6216586;23;20035;-85
2023/03/05 09:51:02;;;;;;;6.78;1.60;;;5.50;99.90;;;;;;6217160;23;20039;-85
2023/03/05 09:53:45;;;;;;;12.85;1.52;;;5.40;99.90;;;;;;6219684;23;20001;-85
2023/03/05 09:56:26;;;;;;;7.00;2.22;;;5.40;99.90;;;;;;6218896;22;20020;-85
2023/03/05 09:58:55;;;;;;;5.10;1.42;;;5.30;99.90;;;;;;6219858;23;20454;-85
2023/03/05 10:01:38;;;;;;;5.18;1.50;;;5.30;99.90;;;;;;6218013;23;20343;-85
2023/03/05 10:04:19;;;;;;;3.58;1.27;;;5.30;99.90;;;;;;6217370;23;20004;-85
2023/03/05 10:06:55;;;;;;;3.72;1.52;;;5.40;99.90;;;;;;6220434;23;20000;-85
2023/03/05 10:09:54;;;;;;;3.70;1.20;;;5.50;99.90;;;;;;6219401;23;20652;-86
2023/03/05 10:12:41;;;;;;;4.25;1.00;;;5.60;99.90;;;;;;6247103;23;20000;-85
2023/03/05 10:15:36;;;;;;;3.30;0.80;;;5.60;99.90;;;;;;6219466;23;20090;-85
2023/03/05 10:18:11;;;;;;;3.15;0.70;;;5.70;99.90;;;;;;6220461;23;20006;-86
2023/03/05 10:20:58;;;;;;;3.35;0.68;;;5.70;99.90;;;;;;6220040;23;20024;-85
2023/03/05 10:23:32;;;;;;;4.13;0.60;;;5.90;99.90;;;;;;6219388;23;20008;-85
2023/03/05 10:26:20;;;;;;;2.85;0.47;;;5.90;99.90;;;;;;6247376;23;20000;-85
2023/03/05 10:29:27;;;;;;;4.55;0.77;;;5.90;99.90;;;;;;6220935;23;20015;-85
2023/03/05 10:32:21;;;;;;;2.63;0.40;;;6.00;99.90;;;;;;6219365;23;20095;-86
2023/03/05 10:35:11;;;;;;;1.80;0.50;;;6.30;99.90;;;;;;6220815;23;20016;-86
2023/03/05 10:38:21;;;;;;;2.45;0.40;;;6.40;99.90;;;;;;6245479;23;20008;-86
2023/03/05 10:40:55;;;;;;;1.92;0.40;;;6.40;99.90;;;;;;6203878;23;20004;-85
2023/03/05 10:43:41;;;;;;;1.00;0.40;;;6.40;99.90;;;;;;6219884;23;20008;-85
2023/03/05 10:46:15;;;;;;;4.85;0.40;;;6.50;99.90;;;;;;6218377;23;20000;-85
2023/03/05 10:48:46;;;;;;;3.90;0.40;;;6.60;99.90;;;;;;6219018;23;20000;-85
2023/03/05 10:51:52;;;;;;;1.70;0.22;;;6.70;99.90;;;;;;6217673;23;20051;-86
2023/03/05 10:54:28;;;;;;;1.83;0.40;;;6.80;99.90;;;;;;6194035;23;20008;-86
2023/03/05 10:57:03;;;;;;;1.00;0.35;;;6.90;99.90;;;;;;6218430;23;20047;-86
2023/03/05 10:59:28;;;;;;;1.88;0.35;;;7.00;99.90;;;;;;6218148;23;20050;-86
2023/03/05 11:02:04;;;;;;;2.38;0.40;;;7.00;99.90;;;;;;6216930;22;20380;-85
2023/03/05 11:04:37;;;;;;;2.40;0.32;;;7.10;99.90;;;;;;6218441;23;20011;-85
2023/03/05 11:07:25;;;;;;;1.52;0.30;;;7.10;99.90;;;;;;6216995;23;20083;-86
2023/03/05 11:10:03;;;;;;;1.05;0.40;;;7.00;99.90;;;;;;6217467;23;20004;-85
2023/03/05 11:12:32;;;;;;;3.42;0.40;;;6.90;99.90;;;;;;6217218;23;20324;-86
2023/03/05 11:15:16;;;;;;;1.70;0.50;;;6.90;99.90;;;;;;6216880;23;20062;-85
2023/03/05 11:17:46;;;;;;;1.17;0.30;;;7.00;99.90;;;;;;6218889;23;20098;-85
2023/03/05 11:20:29;;;;;;;4.18;0.30;;;7.00;99.90;;;;;;6218196;23;20358;-85
2023/03/05 11:23:13;;;;;;;3.28;0.20;;;7.00;99.90;;;;;;6244753;23;20054;-84
2023/03/05 11:25:47;;;;;;;2.80;0.30;;;7.00;99.90;;;;;;6245489;23;20050;-85
2023/03/05 11:28:18;;;;;;;5.13;0.40;;;7.00;99.90;;;;;;6217784;23;20026;-85
2023/03/05 11:31:13;;;;;;;2.15;0.30;;;7.00;99.90;;;;;;6244489;23;20008;-85
2023/03/05 11:33:52;;;;;;;3.25;0.30;;;7.00;99.90;;;;;;6198687;23;20445;-91
2023/03/05 11:36:38;;;;;;;3.05;0.35;;;7.10;99.90;;;;;;6218164;23;20012;-87
2023/03/05 11:39:06;;;;;;;1.50;0.40;;;7.20;99.90;;;;;;6216762;23;20460;-85
2023/03/05 11:41:59;;;;;;;3.97;0.45;;;7.30;99.90;;;;;;6216278;23;20559;-85
2023/03/05 11:44:52;;;;;;;1.30;0.30;;;7.50;99.90;;;;;;6218765;23;20000;-85
2023/03/05 11:47:48;;;;;;;1.90;0.35;;;7.50;99.90;;;;;;6243001;22;20045;-85
2023/03/05 11:50:25;;;;;;;3.22;0.60;;;7.50;99.90;;;;;;6218073;23;20108;-85
2023/03/05 11:52:56;;;;;;;3.30;0.47;;;7.50;99.90;;;;;;6218909;23;20111;-86
2023/03/05 11:55:42;;;;;;;1.98;0.30;;;7.70;99.90;;;;;;6219061;23;20390;-85
2023/03/05 11:58:38;;;;;;;2.58;0.32;;;7.70;99.90;;;;;;6219403;23;20008;-86
2023/03/05 12:01:14;;;;;;;2.17;0.50;;;7.70;99.90;;;;;;6217194;22;20093;-85
2023/03/05 12:03:39;;;;;;;3.63;0.47;;;7.60;99.90;;;;;;6216746;23;20000;-85
2023/03/05 12:06:22;;;;;;;1.42;0.50;;;7.60;99.90;;;;;;6217972;23;20331;-85
2023/03/05 12:08:53;;;;;;;1.25;0.40;;;7.60;99.90;;;;;;6245894;23;20021;-85
2023/03/05 12:11:30;;;;;;;2.55;0.50;;;7.80;99.90;;;;;;6218305;23;20000;-85
2023/03/05 12:13:59;;;;;;;3.83;0.50;;;8.00;99.90;;;;;;6244987;23;20057;-85
2023/03/05 12:16:53;;;;;;;2.47;0.32;;;8.10;99.90;;;;;;6217176;23;20008;-85
2023/03/05 12:19:31;;;;;;;1.90;0.40;;;8.10;99.90;;;;;;6238520;23;20004;-85
2023/03/05 12:21:57;;;;;;;3.38;0.45;;;7.90;99.90;;;;;;6188830;23;20012;-86
2023/03/05 12:24:23;;;;;;;1.85;0.40;;;7.80;99.90;;;;;;6214442;23;20005;-85
2023/03/05 12:26:51;;;;;;;3.70;0.40;;;7.90;99.90;;;;;;6215720;23;20007;-86
2023/03/05 12:29:26;;;;;;;1.30;0.30;;;7.90;99.90;;;;;;6188373;23;20012;-86
2023/03/05 12:31:52;;;;;;;4.85;0.50;;;7.90;99.90;;;;;;6188565;23;20008;-85
2023/03/05 12:34:39;;;;;;;1.75;0.40;;;7.70;99.90;;;;;;6188209;23;20595;-85
2023/03/05 12:37:23;;;;;;;1.45;0.50;;;7.80;99.90;;;;;;6188395;23;20008;-86
2023/03/05 12:39:57;;;;;;;2.25;0.38;;;7.90;99.90;;;;;;6216232;23;20055;-84
2023/03/05 12:42:45;;;;;;;1.42;0.43;;;8.00;99.90;;;;;;6215653;23;19997;-85
2023/03/05 12:45:10;;;;;;;3.38;0.85;;;8.10;99.90;;;;;;6188970;23;20012;-85
2023/03/05 12:47:37;;;;;;;2.95;0.40;;;8.10;99.90;;;;;;6188649;23;20083;-86
2023/03/05 12:50:04;;;;;;;2.65;0.40;;;8.30;99.90;;;;;;6187860;23;20004;-85
2023/03/05 12:52:32;;;;;;;4.05;0.60;;;8.40;99.90;;;;;;6214452;23;20001;-85
2023/03/05 12:55:36;;;;;;;2.35;0.45;;;8.30;99.90;;;;;;6188508;23;20394;-84
2023/03/05 12:58:13;;;;;;;1.63;0.20;;;8.10;99.90;;;;;;6121991;23;20008;-85
2023/03/05 13:00:51;;;;;;;2.45;0.20;;;8.10;99.90;;;;;;6188760;23;20016;-85
2023/03/05 13:03:19;;;;;;;2.35;0.40;;;8.00;99.90;;;;;;6188827;23;20008;-86
2023/03/05 13:05:54;;;;;;;1.40;0.20;;;8.00;99.90;;;;;;6188570;23;20087;-85
2023/03/05 13:08:21;;;;;;;2.15;0.40;;;8.10;99.90;;;;;;6187401;23;20017;-85